createdAt,value
2022-11-24T00:14:35.705Z,4.6
2022-11-24T00:29:31.427Z,4.49
2022-11-24T00:44:27.644Z,4.48
2022-11-24T00:59:23.982Z,4.66
2022-11-24T01:14:20.215Z,4.94
2022-11-24T01:29:16.571Z,4.8
2022-11-24T01:44:12.788Z,4.83
2022-11-24T01:59:08.625Z,4.67
2022-11-24T02:14:04.949Z,4.83
2022-11-24T02:29:01.398Z,5.64
2022-11-24T02:43:58.051Z,6.53
2022-11-24T02:58:54.331Z,6.37
2022-11-24T03:13:50.063Z,6.3
2022-11-24T03:28:46.165Z,6.54
2022-11-24T03:43:44.151Z,6.43
2022-11-24T03:58:38.542Z,6.4
2022-11-24T04:13:34.924Z,6.4
2022-11-24T04:28:30.765Z,6.38
2022-11-24T04:43:26.996Z,6.65
2022-11-24T04:58:23.334Z,7.23
2022-11-24T05:13:20.233Z,7.26
2022-11-24T05:28:16.103Z,8.01
2022-11-24T05:43:12.040Z,7.61
2022-11-24T05:58:08.075Z,8.68
2022-11-24T06:13:04.418Z,8.13
2022-11-24T06:28:00.598Z,8.37
2022-11-24T06:42:57.130Z,8.58
2022-11-24T06:57:53.660Z,8.08
2022-11-24T07:12:49.624Z,7.63
2022-11-24T07:27:46.019Z,7.6
2022-11-24T07:42:42.322Z,7.76
2022-11-24T07:57:38.902Z,7.85
2022-11-24T08:12:35.266Z,8.03
2022-11-24T08:27:31.681Z,7.77
2022-11-24T08:42:27.752Z,7.71
2022-11-24T08:57:23.928Z,7.84
2022-11-24T09:12:20.247Z,8.25
2022-11-24T09:27:17.196Z,9.51
2022-11-24T09:42:14.236Z,10.11
2022-11-24T09:57:11.004Z,10.53
2022-11-24T10:12:07.587Z,10.89
2022-11-24T10:27:03.918Z,10.77
2022-11-24T10:42:00.681Z,10.78
2022-11-24T10:56:57.000Z,11.06
2022-11-24T11:11:53.704Z,11.09
2022-11-24T11:26:50.117Z,11.25
2022-11-24T11:41:46.413Z,11.61
2022-11-24T11:56:42.643Z,11.65
2022-11-24T12:11:39.254Z,11.93
2022-11-24T12:26:35.645Z,12.02
2022-11-24T12:41:47.521Z,11.89
2022-11-24T12:56:28.536Z,12.22
2022-11-24T13:11:25.190Z,12.04
2022-11-24T13:26:21.221Z,12.19
2022-11-24T13:41:28.409Z,12.12
2022-11-24T13:56:14.040Z,11.97
2022-11-24T14:11:10.680Z,11.84
2022-11-24T14:26:07.199Z,11.45
2022-11-24T14:41:05.697Z,11.38
2022-11-24T14:55:59.308Z,10.8
2022-11-24T15:10:55.682Z,10.32
2022-11-24T15:25:51.715Z,10.41
2022-11-24T15:40:48.419Z,9.56
2022-11-24T15:55:43.721Z,9.25
2022-11-24T16:10:39.538Z,9.06
2022-11-24T16:25:35.506Z,8.8
2022-11-24T16:40:31.913Z,8.69
2022-11-24T16:55:27.538Z,8.38
2022-11-24T17:10:24.305Z,8.45
2022-11-24T17:25:19.687Z,8.12
2022-11-24T17:40:27.722Z,7.4
2022-11-24T17:55:11.909Z,7.2
2022-11-24T18:10:07.961Z,7.78
2022-11-24T18:25:03.835Z,7.8
2022-11-24T18:40:00.024Z,6.51
2022-11-24T18:54:55.341Z,6.08
2022-11-24T19:09:51.118Z,6.02
2022-11-24T19:24:47.360Z,5.96
2022-11-24T19:39:43.262Z,6.11
2022-11-24T19:54:39.400Z,6.68
2022-11-24T20:09:35.638Z,7.29
2022-11-24T20:24:31.705Z,6.51
2022-11-24T20:39:27.668Z,6.17
2022-11-24T20:54:23.945Z,6.08
2022-11-24T21:09:19.487Z,5.84
2022-11-24T21:24:16.182Z,5.92
2022-11-24T21:39:12.501Z,5.49
2022-11-24T21:54:08.678Z,5.64
2022-11-24T23:08:49.540Z,5.82
2022-11-24T23:23:45.610Z,5.65
2022-11-24T23:38:41.633Z,6.16
2022-11-24T23:53:38.272Z,6.9
